createdAt,value
2023-04-07T00:03:35.786Z,7.53
2023-04-07T00:08:39.243Z,7.73
2023-04-07T00:13:42.662Z,7.80
2023-04-07T00:18:48.228Z,8.47
2023-04-07T00:23:52.816Z,9.07
2023-04-07T00:28:56.398Z,7.87
2023-04-07T00:34:01.169Z,7.80
2023-04-07T00:39:04.710Z,8.27
2023-04-07T00:44:08.179Z,8.33
2023-04-07T00:49:13.418Z,9.03
2023-04-07T00:54:17.011Z,8.33
2023-04-07T00:59:22.044Z,7.60
2023-04-07T01:04:33.449Z,8.53
2023-04-07T01:09:42.672Z,7.63
2023-04-07T01:14:52.120Z,8.80
2023-04-07T01:20:17.551Z,8.37
2023-04-07T01:25:32.960Z,7.73
2023-04-07T01:30:41.876Z,8.00
2023-04-07T01:35:47.432Z,8.30
2023-04-07T01:40:52.332Z,8.60
2023-04-07T01:45:58.440Z,8.90
2023-04-07T01:51:02.181Z,8.30
2023-04-07T01:56:06.798Z,8.57
2023-04-07T02:01:15.481Z,8.80
2023-04-07T02:06:23.563Z,8.33
2023-04-07T02:11:28.616Z,8.60
2023-04-07T02:16:39.011Z,9.50
2023-04-07T02:21:43.755Z,8.87
2023-04-07T02:26:47.853Z,9.07
2023-04-07T02:31:52.828Z,9.03
2023-04-07T02:36:56.548Z,9.53
2023-04-07T02:42:00.421Z,9.83
2023-04-07T02:47:07.644Z,8.87
2023-04-07T02:52:11.177Z,9.37
2023-04-07T02:57:14.961Z,9.73
2023-04-07T03:02:20.371Z,9.17
2023-04-07T03:07:24.295Z,8.80
2023-04-07T03:12:31.510Z,10.03
2023-04-07T03:17:36.719Z,9.90
2023-04-07T03:22:41.800Z,9.20
2023-04-07T03:27:52.446Z,9.90
2023-04-07T03:32:58.408Z,10.23
2023-04-07T03:38:01.962Z,10.17
2023-04-07T03:43:06.051Z,10.60
2023-04-07T03:48:12.238Z,10.17
2023-04-07T03:53:24.606Z,10.80
2023-04-07T03:58:29.461Z,11.30
2023-04-07T04:03:35.389Z,10.33
2023-04-07T04:08:53.320Z,11.80
2023-04-07T04:13:58.236Z,10.47
2023-04-07T04:19:03.344Z,12.17
2023-04-07T04:24:07.989Z,11.50
2023-04-07T04:29:11.742Z,11.60
2023-04-07T04:34:18.932Z,11.60
2023-04-07T04:39:23.494Z,12.40
2023-04-07T04:44:27.757Z,12.80
2023-04-07T04:49:32.753Z,12.00
2023-04-07T04:54:38.970Z,11.87
2023-04-07T04:59:42.573Z,12.13
2023-04-07T05:04:47.596Z,12.90
2023-04-07T05:10:10.980Z,13.37
2023-04-07T05:15:21.666Z,12.67
2023-04-07T05:20:29.215Z,12.87
2023-04-07T05:25:33.899Z,13.17
2023-04-07T05:30:41.052Z,14.43
2023-04-07T05:35:47.252Z,12.47
2023-04-07T05:40:51.880Z,12.80
2023-04-07T05:46:01.321Z,13.00
2023-04-07T05:51:06.494Z,13.80
2023-04-07T05:56:10.420Z,13.13
2023-04-07T06:01:22.711Z,13.30
2023-04-07T06:06:28.791Z,13.53
2023-04-07T06:11:32.286Z,13.57
2023-04-07T06:16:36.019Z,14.00
2023-04-07T06:21:41.217Z,13.77
2023-04-07T06:26:46.814Z,13.10
2023-04-07T06:31:50.256Z,13.93
2023-04-07T06:36:58.197Z,13.47
2023-04-07T06:42:02.924Z,13.83
2023-04-07T06:47:12.320Z,14.80
2023-04-07T06:52:17.080Z,13.33
2023-04-07T06:57:20.541Z,13.87
2023-04-07T07:02:24.354Z,14.23
2023-04-07T07:07:29.323Z,14.10
2023-04-07T07:12:33.521Z,13.60
2023-04-07T07:17:37.013Z,14.10
2023-04-07T07:22:41.974Z,12.93
2023-04-07T07:27:45.334Z,13.93
2023-04-07T07:32:48.825Z,12.10
2023-04-07T07:37:53.896Z,13.10
2023-04-07T07:42:57.673Z,12.73
2023-04-07T07:48:01.401Z,12.97
2023-04-07T07:53:06.583Z,12.93
2023-04-07T07:58:10.388Z,12.60
2023-04-07T08:03:14.154Z,13.47
2023-04-07T08:08:19.351Z,12.77
2023-04-07T08:13:22.736Z,12.77
2023-04-07T08:18:26.530Z,12.63
2023-04-07T08:23:31.317Z,13.60
2023-04-07T08:28:34.841Z,11.43
2023-04-07T08:33:38.596Z,12.60
2023-04-07T08:38:45.237Z,11.60
2023-04-07T08:43:50.696Z,12.50
2023-04-07T08:48:56.993Z,12.37
2023-04-07T08:54:08.526Z,11.70
2023-04-07T08:59:14.138Z,11.87
2023-04-07T09:04:18.936Z,12.07
2023-04-07T09:09:24.494Z,11.87
2023-04-07T09:14:28.288Z,11.17
2023-04-07T09:19:32.447Z,11.37
2023-04-07T09:24:37.267Z,10.97
2023-04-07T09:29:42.221Z,10.03
2023-04-07T09:34:45.649Z,11.20
2023-04-07T09:39:54.645Z,10.43
2023-04-07T09:44:58.070Z,9.63
2023-04-07T09:50:07.125Z,10.33
2023-04-07T09:55:12.364Z,10.20
2023-04-07T10:00:17.326Z,10.40
2023-04-07T10:05:22.732Z,9.83
2023-04-07T10:10:28.900Z,10.57
2023-04-07T10:15:32.680Z,10.07
2023-04-07T10:20:38.109Z,9.33
2023-04-07T10:25:45.927Z,10.00
2023-04-07T10:30:50.711Z,9.70
2023-04-07T10:36:08.259Z,9.43
2023-04-07T10:41:35.634Z,9.60
2023-04-07T10:47:04.800Z,10.07
2023-04-07T10:52:25.303Z,9.30
2023-04-07T10:57:30.383Z,8.10
2023-04-07T11:02:35.508Z,8.07
2023-04-07T11:07:51.403Z,9.40
2023-04-07T11:13:07.881Z,8.73
2023-04-07T11:18:17.358Z,7.80
2023-04-07T11:23:23.163Z,9.77
2023-04-07T11:28:28.156Z,9.30
2023-04-07T11:33:35.028Z,8.70
2023-04-07T11:38:39.965Z,8.80
2023-04-07T11:43:45.109Z,8.63
2023-04-07T11:48:49.032Z,9.10
2023-04-07T11:53:57.323Z,8.33
2023-04-07T11:59:02.799Z,8.10
2023-04-07T12:04:06.524Z,9.00
2023-04-07T12:09:10.838Z,8.10
2023-04-07T12:14:15.653Z,9.13
2023-04-07T12:19:19.193Z,7.87
2023-04-07T12:24:24.048Z,7.83
2023-04-07T12:29:30.108Z,9.07
2023-04-07T12:34:34.792Z,8.10
2023-04-07T12:39:38.537Z,8.50
2023-04-07T12:44:43.314Z,7.43
2023-04-07T12:49:48.548Z,7.73
2023-04-07T12:54:53.594Z,8.27
2023-04-07T12:59:58.977Z,7.77
2023-04-07T13:05:02.733Z,8.17
2023-04-07T13:10:09.413Z,7.83
2023-04-07T13:15:14.462Z,7.83
2023-04-07T13:20:20.610Z,7.80
2023-04-07T13:25:24.600Z,7.10
2023-04-07T13:30:29.455Z,8.57
2023-04-07T13:35:36.082Z,7.43
2023-04-07T13:40:39.578Z,7.63
2023-04-07T13:45:44.738Z,6.83
2023-04-07T13:50:48.185Z,7.70
2023-04-07T13:55:51.737Z,7.73
2023-04-07T14:00:57.206Z,7.47
2023-04-07T14:06:01.413Z,7.47
2023-04-07T14:11:05.284Z,7.50
2023-04-07T14:16:10.172Z,7.33
2023-04-07T14:21:13.628Z,6.93
2023-04-07T14:26:17.293Z,8.03
2023-04-07T14:31:22.159Z,6.53
2023-04-07T14:36:25.693Z,7.27
2023-04-07T14:41:29.894Z,7.20
2023-04-07T14:46:34.687Z,7.17
2023-04-07T14:51:38.593Z,6.93
2023-04-07T14:56:42.553Z,7.43
2023-04-07T15:01:47.426Z,7.43
2023-04-07T15:06:51.096Z,7.33
2023-04-07T15:11:56.403Z,7.70
2023-04-07T15:17:01.274Z,6.20
2023-04-07T15:22:04.951Z,7.53
2023-04-07T15:27:10.932Z,7.40
2023-04-07T15:32:16.020Z,8.07
2023-04-07T15:37:19.741Z,9.10
2023-04-07T15:42:23.263Z,13.80
2023-04-07T15:47:28.135Z,13.23
2023-04-07T15:52:32.180Z,12.90
2023-04-07T15:57:35.613Z,14.63
2023-04-07T16:02:40.699Z,13.93
2023-04-07T16:07:44.524Z,14.37
2023-04-07T16:12:48.433Z,15.73
2023-04-07T16:17:53.573Z,14.73
2023-04-07T16:22:57.093Z,15.77
2023-04-07T16:28:00.472Z,15.80
2023-04-07T16:33:05.578Z,15.10
2023-04-07T16:38:09.228Z,16.27
2023-04-07T16:43:12.961Z,16.77
2023-04-07T16:48:17.775Z,15.50
2023-04-07T16:53:21.840Z,15.37
2023-04-07T16:58:25.964Z,15.10
2023-04-07T17:03:31.291Z,16.37
2023-04-07T17:08:35.135Z,18.20
2023-04-07T17:13:40.259Z,17.27
2023-04-07T17:18:45.307Z,17.80
2023-04-07T17:23:49.024Z,18.00
2023-04-07T17:28:52.999Z,17.67
2023-04-07T17:33:57.798Z,18.10
2023-04-07T17:39:03.043Z,18.27
2023-04-07T17:44:09.599Z,17.87
2023-04-07T17:49:14.651Z,17.87
2023-04-07T17:54:18.050Z,16.20
2023-04-07T17:59:21.817Z,16.90
2023-04-07T18:04:28.904Z,16.87
2023-04-07T18:09:32.938Z,17.03
2023-04-07T18:14:36.724Z,16.47
2023-04-07T18:19:41.618Z,17.37
2023-04-07T18:24:45.362Z,17.10
2023-04-07T18:29:48.798Z,15.87
2023-04-07T18:34:54.951Z,16.47
2023-04-07T18:39:58.616Z,17.30
2023-04-07T18:45:02.302Z,17.27
2023-04-07T18:50:09.832Z,16.83
2023-04-07T18:55:13.305Z,17.80
2023-04-07T19:00:17.048Z,17.50
2023-04-07T19:05:23.753Z,18.93
2023-04-07T19:10:29.208Z,17.40
2023-04-07T19:15:38.396Z,18.70
2023-04-07T19:20:43.464Z,18.40
2023-04-07T19:25:47.008Z,18.00
2023-04-07T19:30:50.463Z,18.00
2023-04-07T19:35:55.545Z,17.93
2023-04-07T19:40:58.933Z,17.30
2023-04-07T19:46:03.658Z,17.83
2023-04-07T19:51:08.695Z,18.23
2023-04-07T19:56:13.984Z,17.80
2023-04-07T20:01:18.280Z,17.07
2023-04-07T20:06:26.826Z,18.70
2023-04-07T20:11:30.361Z,20.80
2023-04-07T20:16:34.211Z,20.03
2023-04-07T20:21:39.021Z,18.00
2023-04-07T20:26:42.445Z,17.90
2023-04-07T20:31:46.179Z,17.53
2023-04-07T20:36:51.033Z,17.23
2023-04-07T20:41:54.489Z,18.03
2023-04-07T20:46:58.240Z,18.60
2023-04-07T20:52:03.033Z,18.17
2023-04-07T20:57:06.450Z,19.27
2023-04-07T21:02:09.947Z,19.50
2023-04-07T21:07:15.150Z,19.97
2023-04-07T21:12:18.653Z,19.93
2023-04-07T21:17:22.070Z,20.37
2023-04-07T21:22:28.196Z,20.40
2023-04-07T21:27:31.990Z,20.53
2023-04-07T21:32:35.403Z,20.07
2023-04-07T21:37:40.426Z,19.00
2023-04-07T21:42:43.829Z,19.97
2023-04-07T21:47:47.759Z,19.17
2023-04-07T21:52:54.517Z,19.77
2023-04-07T21:57:58.266Z,19.53
2023-04-07T22:03:01.911Z,20.70
2023-04-07T22:08:07.047Z,20.23
2023-04-07T22:13:10.747Z,19.67
2023-04-07T22:18:14.115Z,18.07
2023-04-07T22:23:18.946Z,20.23
2023-04-07T22:28:22.490Z,20.20
2023-04-07T22:33:25.994Z,20.43
2023-04-07T22:38:31.062Z,20.47
2023-04-07T22:43:34.580Z,19.90
2023-04-07T22:48:38.041Z,18.80
2023-04-07T22:53:42.866Z,19.00
2023-04-07T22:58:46.426Z,17.53
2023-04-07T23:03:49.871Z,18.80
2023-04-07T23:08:55.005Z,20.00
2023-04-07T23:13:58.492Z,20.33
2023-04-07T23:19:02.266Z,20.23
2023-04-07T23:24:07.514Z,19.77
2023-04-07T23:29:11.049Z,18.90
2023-04-07T23:34:14.794Z,20.27
2023-04-07T23:39:19.597Z,20.10
2023-04-07T23:44:23.334Z,19.53
2023-04-07T23:49:28.112Z,19.23
2023-04-07T23:54:32.881Z,19.03
2023-04-07T23:59:36.284Z,18.97
